Time;durP1;ratioP1;P1;durP2;ratioP2;P2;SDS_P1;SDS_P2;PMS_P1;PMS_P2;Temp;Humidity;BMP_temperature;BMP_pressure;BME280_temperature;BME280_humidity;BME280_pressure;Samples;Min_cycle;Max_cycle;Signal;HPM_P1;HPM_P2
2024/01/12 00:01:44;;;;;;;34.97;27.17;;;;;;;;;;5053891;28;20052;-53
2024/01/12 00:04:10;;;;;;;38.03;27.03;;;;;;;;;;5053828;28;20025;-52
2024/01/12 00:06:36;;;;;;;33.07;25.00;;;;;;;;;;5053692;28;20047;-52
2024/01/12 00:09:03;;;;;;;40.37;27.97;;;;;;;;;;5053652;28;20029;-56
2024/01/12 00:11:29;;;;;;;39.60;29.23;;;;;;;;;;5053848;28;20454;-55
2024/01/12 00:13:55;;;;;;;38.53;27.33;;;;;;;;;;5053788;28;20087;-54
2024/01/12 00:16:21;;;;;;;41.53;28.97;;;;;;;;;;5053441;28;20386;-56
2024/01/12 00:18:47;;;;;;;38.23;26.17;;;;;;;;;;5054289;28;20452;-51
2024/01/12 00:21:16;;;;;;;29.50;25.63;;;;;;;;;;5054409;28;20032;-53
2024/01/12 00:23:42;;;;;;;29.20;25.93;;;;;;;;;;5053636;28;20472;-53
2024/01/12 00:26:08;;;;;;;33.63;25.77;;;;;;;;;;5054102;28;20108;-55
2024/01/12 00:28:34;;;;;;;31.67;24.60;;;;;;;;;;5054228;28;20062;-55
2024/01/12 00:31:00;;;;;;;34.63;25.07;;;;;;;;;;5053819;28;20025;-55
2024/01/12 00:33:28;;;;;;;34.40;26.13;;;;;;;;;;5053727;28;20025;-54
2024/01/12 00:35:54;;;;;;;35.70;26.60;;;;;;;;;;5053576;28;20037;-56
2024/01/12 00:38:20;;;;;;;31.83;24.63;;;;;;;;;;5053230;28;20029;-55
2024/01/12 00:40:46;;;;;;;32.47;25.73;;;;;;;;;;5053961;28;20021;-54
2024/01/12 00:43:12;;;;;;;32.43;25.67;;;;;;;;;;5053536;28;20024;-56
2024/01/12 00:45:38;;;;;;;39.10;26.93;;;;;;;;;;5053385;28;20108;-54
2024/01/12 00:48:05;;;;;;;32.30;24.67;;;;;;;;;;5054222;28;20123;-55
2024/01/12 00:50:31;;;;;;;32.80;25.47;;;;;;;;;;5053369;28;20029;-51
2024/01/12 00:52:57;;;;;;;35.67;25.20;;;;;;;;;;5053140;28;20425;-55
2024/01/12 00:55:23;;;;;;;32.87;24.97;;;;;;;;;;5053258;28;20028;-51
2024/01/12 00:57:49;;;;;;;34.00;24.10;;;;;;;;;;5053807;28;20064;-55
2024/01/12 01:00:15;;;;;;;36.20;25.20;;;;;;;;;;5053254;28;20029;-53
2024/01/12 01:02:41;;;;;;;33.77;25.93;;;;;;;;;;5053282;28;20110;-55
2024/01/12 01:05:07;;;;;;;31.30;25.37;;;;;;;;;;5053731;28;20435;-56
2024/01/12 01:07:33;;;;;;;34.20;24.20;;;;;;;;;;5054059;28;20032;-55
2024/01/12 01:09:59;;;;;;;36.73;27.43;;;;;;;;;;5057100;28;20029;-53
2024/01/12 01:12:26;;;;;;;32.87;26.73;;;;;;;;;;5057331;28;20032;-52
2024/01/12 01:14:52;;;;;;;33.30;25.93;;;;;;;;;;5056967;28;20086;-56
2024/01/12 01:17:18;;;;;;;37.27;27.67;;;;;;;;;;5057383;28;20455;-56
2024/01/12 01:19:44;;;;;;;32.90;26.27;;;;;;;;;;5057699;28;20339;-53
2024/01/12 01:22:10;;;;;;;39.73;26.20;;;;;;;;;;5057206;28;20100;-54
2024/01/12 01:24:36;;;;;;;34.97;26.20;;;;;;;;;;5056883;28;20402;-53
2024/01/12 01:27:02;;;;;;;32.97;23.97;;;;;;;;;;5057127;28;20442;-53
2024/01/12 01:29:28;;;;;;;34.93;26.07;;;;;;;;;;5056753;28;20048;-55
2024/01/12 01:31:54;;;;;;;32.33;25.37;;;;;;;;;;5056706;28;20049;-55
2024/01/12 01:34:20;;;;;;;31.17;23.27;;;;;;;;;;5056955;28;20028;-51
2024/01/12 01:36:46;;;;;;;38.23;26.47;;;;;;;;;;5057127;28;20021;-56
2024/01/12 01:39:12;;;;;;;33.80;25.20;;;;;;;;;;5056781;28;20170;-55
2024/01/12 01:41:38;;;;;;;30.80;24.60;;;;;;;;;;5057076;28;20067;-55
2024/01/12 01:44:04;;;;;;;35.40;25.43;;;;;;;;;;5057067;28;20463;-51
2024/01/12 01:46:30;;;;;;;33.77;24.97;;;;;;;;;;5056434;28;20025;-55
2024/01/12 01:48:56;;;;;;;36.60;27.20;;;;;;;;;;5057301;28;20178;-52
2024/01/12 01:51:25;;;;;;;41.27;28.73;;;;;;;;;;5056604;28;20025;-52
2024/01/12 01:53:51;;;;;;;32.83;25.33;;;;;;;;;;5055914;28;20032;-55
2024/01/12 01:56:17;;;;;;;34.97;27.83;;;;;;;;;;5057080;28;20360;-55
2024/01/12 01:58:43;;;;;;;32.90;24.73;;;;;;;;;;5055880;28;20036;-54
2024/01/12 02:01:09;;;;;;;35.80;25.83;;;;;;;;;;5056197;28;20029;-54
2024/01/12 02:03:37;;;;;;;43.47;28.67;;;;;;;;;;5055811;28;20090;-51
2024/01/12 02:06:03;;;;;;;39.13;29.10;;;;;;;;;;5056009;28;20056;-53
2024/01/12 02:08:30;;;;;;;30.23;26.33;;;;;;;;;;5056012;28;20379;-52
2024/01/12 02:10:56;;;;;;;32.07;27.17;;;;;;;;;;5056041;28;20078;-51
2024/01/12 02:13:22;;;;;;;38.90;28.63;;;;;;;;;;5055909;28;20425;-52
2024/01/12 02:15:48;;;;;;;38.03;29.33;;;;;;;;;;5056048;28;20025;-52
2024/01/12 02:18:14;;;;;;;38.30;27.40;;;;;;;;;;5056057;28;20119;-54
2024/01/12 02:20:41;;;;;;;35.07;25.87;;;;;;;;;;5054338;28;20032;-50
2024/01/12 02:23:07;;;;;;;34.53;27.97;;;;;;;;;;5055732;28;20387;-54
2024/01/12 02:25:33;;;;;;;33.40;25.37;;;;;;;;;;5055663;28;20032;-49
2024/01/12 02:27:59;;;;;;;33.40;26.57;;;;;;;;;;5056060;28;20029;-53
2024/01/12 02:30:25;;;;;;;36.33;26.33;;;;;;;;;;5056429;28;20060;-55
2024/01/12 02:32:51;;;;;;;36.37;23.90;;;;;;;;;;5055266;28;20043;-53
2024/01/12 02:35:18;;;;;;;34.77;26.13;;;;;;;;;;5055909;28;20452;-56
2024/01/12 02:37:44;;;;;;;33.40;25.87;;;;;;;;;;5055990;28;20087;-53
2024/01/12 02:40:10;;;;;;;35.00;25.87;;;;;;;;;;5055732;28;20082;-51
2024/01/12 02:42:36;;;;;;;33.60;24.63;;;;;;;;;;5055618;28;20032;-54
2024/01/12 02:45:02;;;;;;;41.07;25.00;;;;;;;;;;5055942;28;20443;-50
2024/01/12 02:47:28;;;;;;;31.20;25.60;;;;;;;;;;5055937;28;20513;-54
2024/01/12 02:49:54;;;;;;;29.53;22.83;;;;;;;;;;5055307;28;20146;-51
2024/01/12 02:52:20;;;;;;;28.37;23.67;;;;;;;;;;5055722;28;20025;-49
2024/01/12 02:54:46;;;;;;;33.90;26.83;;;;;;;;;;5055375;28;20451;-55
2024/01/12 02:57:12;;;;;;;28.53;24.03;;;;;;;;;;5055242;28;20045;-52
2024/01/12 02:59:38;;;;;;;34.43;27.20;;;;;;;;;;5055558;28;20032;-52
2024/01/12 03:02:04;;;;;;;35.47;25.40;;;;;;;;;;5055031;28;20406;-53
2024/01/12 03:04:30;;;;;;;29.37;24.77;;;;;;;;;;5054955;28;20048;-54
2024/01/12 03:06:56;;;;;;;38.90;25.70;;;;;;;;;;5054842;28;20021;-53
2024/01/12 03:09:22;;;;;;;37.43;25.80;;;;;;;;;;5055703;28;20032;-52
2024/01/12 03:11:48;;;;;;;43.43;26.47;;;;;;;;;;5054913;28;20078;-54
2024/01/12 03:14:14;;;;;;;35.07;27.87;;;;;;;;;;5055560;28;20032;-55
2024/01/12 03:16:40;;;;;;;34.23;26.13;;;;;;;;;;5055295;28;20037;-54
2024/01/12 03:19:06;;;;;;;37.50;28.57;;;;;;;;;;5055467;28;20116;-55
2024/01/12 03:21:32;;;;;;;42.13;27.97;;;;;;;;;;5054930;28;20082;-53
2024/01/12 03:23:58;;;;;;;29.33;26.20;;;;;;;;;;5054574;28;20056;-48
2024/01/12 03:26:24;;;;;;;44.00;28.30;;;;;;;;;;5054544;28;20032;-55
2024/01/12 03:28:50;;;;;;;34.67;28.33;;;;;;;;;;5054822;28;20028;-53
2024/01/12 03:31:19;;;;;;;33.33;25.07;;;;;;;;;;5054453;28;20025;-53
2024/01/12 03:33:45;;;;;;;30.83;25.87;;;;;;;;;;5054412;28;20025;-55
2024/01/12 03:36:11;;;;;;;30.40;26.27;;;;;;;;;;5054578;28;20036;-54
2024/01/12 03:38:37;;;;;;;35.83;28.10;;;;;;;;;;5054323;28;20036;-54
2024/01/12 03:41:06;;;;;;;36.73;28.03;;;;;;;;;;5054313;28;20025;-53
2024/01/12 03:43:32;;;;;;;36.90;28.33;;;;;;;;;;5054222;28;20475;-54
2024/01/12 03:45:57;;;;;;;31.57;23.67;;;;;;;;;;5054227;28;20024;-51
2024/01/12 03:48:23;;;;;;;34.93;26.00;;;;;;;;;;5054708;28;20499;-53
2024/01/12 03:50:49;;;;;;;43.50;27.47;;;;;;;;;;5054089;28;20021;-51
2024/01/12 03:53:15;;;;;;;33.37;26.37;;;;;;;;;;5054586;28;20084;-52
2024/01/12 03:55:41;;;;;;;35.67;26.87;;;;;;;;;;5053880;28;20087;-49
2024/01/12 03:58:07;;;;;;;32.40;25.97;;;;;;;;;;5053995;28;20057;-55
2024/01/12 04:00:33;;;;;;;35.73;28.67;;;;;;;;;;5054435;28;20037;-55
2024/01/12 04:02:59;;;;;;;35.07;29.67;;;;;;;;;;5053937;28;20028;-53
2024/01/12 04:05:26;;;;;;;34.43;26.23;;;;;;;;;;5053570;28;20056;-52
2024/01/12 04:07:52;;;;;;;35.40;26.40;;;;;;;;;;5053800;28;20025;-53
2024/01/12 04:10:18;;;;;;;37.67;25.57;;;;;;;;;;5054095;28;20021;-52
2024/01/12 04:12:44;;;;;;;31.63;24.03;;;;;;;;;;5053805;28;20023;-54
2024/01/12 04:15:10;;;;;;;46.47;28.90;;;;;;;;;;5053808;28;20473;-50
2024/01/12 04:17:36;;;;;;;37.43;27.23;;;;;;;;;;5054133;28;20371;-53
2024/01/12 04:20:02;;;;;;;31.33;26.33;;;;;;;;;;5054223;28;20021;-48
2024/01/12 04:22:28;;;;;;;34.60;27.23;;;;;;;;;;5053671;28;20024;-49
2024/01/12 04:24:54;;;;;;;33.90;26.57;;;;;;;;;;5053694;28;20054;-48
2024/01/12 04:27:20;;;;;;;31.83;24.37;;;;;;;;;;5054210;28;20037;-52
2024/01/12 04:29:46;;;;;;;35.07;22.70;;;;;;;;;;5053902;28;20052;-52
2024/01/12 04:32:12;;;;;;;30.47;24.80;;;;;;;;;;5053396;28;20031;-53
2024/01/12 04:34:38;;;;;;;38.10;25.03;;;;;;;;;;5053565;28;20451;-51
2024/01/12 04:37:05;;;;;;;37.87;28.57;;;;;;;;;;5053383;28;20414;-49
2024/01/12 04:39:31;;;;;;;35.30;26.13;;;;;;;;;;5054070;28;20033;-50
2024/01/12 04:41:57;;;;;;;33.93;28.03;;;;;;;;;;5053759;28;20025;-53
2024/01/12 04:44:23;;;;;;;39.93;28.03;;;;;;;;;;5057521;28;20025;-51
2024/01/12 04:46:49;;;;;;;39.70;27.00;;;;;;;;;;5057549;28;20028;-54
2024/01/12 04:49:15;;;;;;;32.90;27.10;;;;;;;;;;5057765;28;20029;-53
2024/01/12 04:51:41;;;;;;;38.93;29.30;;;;;;;;;;5058249;28;20501;-51
2024/01/12 04:54:07;;;;;;;34.87;28.33;;;;;;;;;;5057132;28;20077;-50
2024/01/12 04:56:33;;;;;;;36.77;27.17;;;;;;;;;;5057145;28;20076;-50
2024/01/12 04:58:59;;;;;;;36.90;27.77;;;;;;;;;;5057502;28;20029;-52
2024/01/12 05:01:25;;;;;;;37.03;28.40;;;;;;;;;;5057567;28;20499;-53
2024/01/12 05:03:51;;;;;;;40.97;30.67;;;;;;;;;;5057214;28;20028;-50
2024/01/12 05:06:17;;;;;;;39.37;28.37;;;;;;;;;;5056850;28;20452;-52
2024/01/12 05:08:43;;;;;;;40.27;30.37;;;;;;;;;;5057239;28;20021;-54
2024/01/12 05:11:09;;;;;;;45.47;31.10;;;;;;;;;;5057754;28;20492;-51
2024/01/12 05:13:35;;;;;;;37.57;31.57;;;;;;;;;;5057070;28;20025;-51
2024/01/12 05:16:01;;;;;;;43.93;29.30;;;;;;;;;;5057765;28;20112;-53
2024/01/12 05:18:27;;;;;;;37.63;28.80;;;;;;;;;;5057751;28;20418;-50
2024/01/12 05:20:53;;;;;;;40.73;28.27;;;;;;;;;;5056880;28;20033;-50
2024/01/12 05:23:19;;;;;;;41.70;28.67;;;;;;;;;;5057320;28;20333;-52
2024/01/12 05:25:45;;;;;;;33.70;26.07;;;;;;;;;;5057287;28;20025;-49
2024/01/12 05:28:11;;;;;;;40.07;32.27;;;;;;;;;;5057412;28;20051;-51
2024/01/12 05:30:37;;;;;;;44.77;32.00;;;;;;;;;;5056609;28;20052;-51
2024/01/12 05:33:03;;;;;;;45.23;34.83;;;;;;;;;;5056964;28;20060;-53
2024/01/12 05:35:29;;;;;;;36.20;28.83;;;;;;;;;;5056746;28;20075;-55
2024/01/12 05:37:55;;;;;;;40.50;31.10;;;;;;;;;;5056510;28;20490;-49
2024/01/12 05:40:21;;;;;;;40.47;30.27;;;;;;;;;;5056698;28;20029;-48
2024/01/12 05:42:47;;;;;;;43.33;30.93;;;;;;;;;;5056439;28;20029;-51
2024/01/12 05:45:13;;;;;;;38.70;29.13;;;;;;;;;;5056020;28;20029;-53
2024/01/12 05:47:39;;;;;;;39.47;30.43;;;;;;;;;;5056516;28;20032;-49
2024/01/12 05:50:09;;;;;;;42.30;28.97;;;;;;;;;;5056877;28;20029;-49
2024/01/12 05:52:35;;;;;;;37.65;29.58;;;;;;;;;;5056890;28;20029;-53
2024/01/12 05:55:02;;;;;;;33.30;28.13;;;;;;;;;;5056586;28;20447;-54
2024/01/12 05:57:28;;;;;;;37.10;27.00;;;;;;;;;;5056295;28;20481;-53
2024/01/12 05:59:53;;;;;;;34.13;28.13;;;;;;;;;;5056057;28;20115;-52
2024/01/12 06:02:19;;;;;;;41.27;33.33;;;;;;;;;;5056068;28;20051;-53
2024/01/12 06:04:45;;;;;;;36.63;27.63;;;;;;;;;;5056474;28;20025;-52
2024/01/12 06:07:11;;;;;;;31.90;26.63;;;;;;;;;;5056268;28;20033;-48
2024/01/12 06:09:37;;;;;;;37.80;26.17;;;;;;;;;;5055992;28;20028;-50
2024/01/12 06:12:03;;;;;;;34.63;27.20;;;;;;;;;;5056219;28;20020;-51
2024/01/12 06:14:29;;;;;;;39.10;28.57;;;;;;;;;;5056232;28;20029;-51
2024/01/12 06:16:55;;;;;;;35.47;26.10;;;;;;;;;;5055871;28;20021;-52
2024/01/12 06:19:21;;;;;;;29.00;24.80;;;;;;;;;;5056197;28;20040;-53
2024/01/12 06:21:47;;;;;;;37.00;28.17;;;;;;;;;;5056356;28;20347;-51
2024/01/12 06:24:13;;;;;;;41.43;29.97;;;;;;;;;;5055734;28;20032;-49
2024/01/12 06:26:41;;;;;;;37.07;29.33;;;;;;;;;;5055845;28;20539;-50
2024/01/12 06:29:08;;;;;;;39.90;29.80;;;;;;;;;;5056220;28;20040;-52
2024/01/12 06:31:37;;;;;;;36.60;26.77;;;;;;;;;;5056359;28;20021;-55
2024/01/12 06:34:03;;;;;;;37.33;28.27;;;;;;;;;;5056004;28;20433;-50
2024/01/12 06:36:28;;;;;;;41.17;29.40;;;;;;;;;;5056044;28;20029;-52
2024/01/12 06:38:54;;;;;;;38.37;28.67;;;;;;;;;;5055693;28;20033;-51
2024/01/12 06:41:20;;;;;;;41.17;30.83;;;;;;;;;;5055508;28;20458;-53
2024/01/12 06:43:46;;;;;;;41.67;31.53;;;;;;;;;;5055426;28;20068;-52
2024/01/12 06:46:12;;;;;;;36.23;30.00;;;;;;;;;;5055735;28;20033;-53
2024/01/12 06:48:38;;;;;;;42.60;28.47;;;;;;;;;;5056066;28;20029;-51
2024/01/12 06:51:04;;;;;;;37.17;27.27;;;;;;;;;;5054870;28;20102;-50
2024/01/12 06:53:30;;;;;;;36.83;29.27;;;;;;;;;;5055100;28;20025;-53
2024/01/12 06:55:56;;;;;;;41.50;29.87;;;;;;;;;;5055201;28;20067;-54
2024/01/12 06:58:22;;;;;;;31.60;26.70;;;;;;;;;;5055914;28;20170;-50
2024/01/12 07:00:48;;;;;;;42.00;30.83;;;;;;;;;;5055546;28;20460;-49
2024/01/12 07:03:14;;;;;;;39.53;30.77;;;;;;;;;;5055162;28;20106;-53
2024/01/12 07:05:40;;;;;;;39.23;31.27;;;;;;;;;;5054128;28;20032;-51
2024/01/12 07:08:07;;;;;;;37.53;28.73;;;;;;;;;;5054964;28;20037;-54
2024/01/12 07:10:33;;;;;;;35.47;26.83;;;;;;;;;;5054922;28;20036;-54
2024/01/12 07:12:59;;;;;;;36.47;29.83;;;;;;;;;;5055200;28;20404;-52
2024/01/12 07:15:25;;;;;;;43.30;30.37;;;;;;;;;;5055145;28;20053;-52
2024/01/12 07:17:51;;;;;;;33.10;27.73;;;;;;;;;;5054906;28;20073;-53
2024/01/12 07:20:17;;;;;;;36.57;28.30;;;;;;;;;;5054735;28;20029;-54
2024/01/12 07:22:44;;;;;;;32.90;28.47;;;;;;;;;;5055311;28;20044;-53
2024/01/12 07:25:11;;;;;;;35.17;27.80;;;;;;;;;;5054679;28;20043;-52
2024/01/12 07:27:37;;;;;;;41.13;31.13;;;;;;;;;;5055531;28;20082;-53
2024/01/12 07:30:03;;;;;;;34.10;29.97;;;;;;;;;;5055066;28;20028;-52
2024/01/12 07:32:29;;;;;;;40.40;29.93;;;;;;;;;;5054673;28;20028;-54
2024/01/12 07:34:55;;;;;;;41.77;30.90;;;;;;;;;;5054238;28;20383;-53
2024/01/12 07:37:21;;;;;;;35.37;27.27;;;;;;;;;;5054033;28;20033;-53
2024/01/12 07:39:47;;;;;;;34.97;29.30;;;;;;;;;;5054095;28;20055;-53
2024/01/12 07:42:13;;;;;;;47.70;31.77;;;;;;;;;;5054340;28;20075;-49
2024/01/12 07:44:38;;;;;;;43.23;31.90;;;;;;;;;;5054839;28;20036;-48
2024/01/12 07:47:04;;;;;;;41.57;31.27;;;;;;;;;;5053802;28;20524;-49
2024/01/12 07:49:30;;;;;;;41.37;31.83;;;;;;;;;;5054553;28;20040;-51
2024/01/12 07:51:56;;;;;;;43.77;30.53;;;;;;;;;;5054531;28;20047;-51
2024/01/12 07:54:22;;;;;;;37.87;30.27;;;;;;;;;;5053647;28;20368;-52
2024/01/12 07:56:48;;;;;;;42.60;31.13;;;;;;;;;;5054197;28;20105;-55
2024/01/12 07:59:14;;;;;;;42.93;30.63;;;;;;;;;;5054033;28;20060;-51
2024/01/12 08:01:41;;;;;;;52.83;29.93;;;;;;;;;;5054372;28;20454;-53
2024/01/12 08:04:09;;;;;;;34.80;27.17;;;;;;;;;;5054078;28;20340;-51
2024/01/12 08:06:35;;;;;;;36.83;30.23;;;;;;;;;;5053874;28;20025;-53
2024/01/12 08:09:01;;;;;;;39.70;29.83;;;;;;;;;;5053996;28;20524;-51
2024/01/12 08:11:27;;;;;;;38.73;33.17;;;;;;;;;;5054373;28;20031;-53
2024/01/12 08:13:53;;;;;;;43.07;31.10;;;;;;;;;;5053865;28;20115;-52
2024/01/12 08:16:21;;;;;;;40.27;30.67;;;;;;;;;;5053610;28;20104;-51
2024/01/12 08:18:47;;;;;;;40.60;30.13;;;;;;;;;;5053278;28;20378;-51
2024/01/12 08:21:14;;;;;;;45.90;28.43;;;;;;;;;;5053829;28;20029;-51
2024/01/12 08:23:40;;;;;;;42.30;31.03;;;;;;;;;;5054358;28;20109;-48
2024/01/12 08:26:06;;;;;;;46.47;33.40;;;;;;;;;;5054285;28;20159;-48
2024/01/12 08:28:32;;;;;;;41.37;29.17;;;;;;;;;;5054280;28;20459;-48
2024/01/12 08:30:58;;;;;;;36.27;30.30;;;;;;;;;;5053626;28;20029;-50
2024/01/12 08:33:24;;;;;;;37.93;28.23;;;;;;;;;;5053899;28;20025;-52
2024/01/12 08:35:49;;;;;;;42.90;31.77;;;;;;;;;;5054122;28;20036;-52
2024/01/12 08:38:15;;;;;;;46.23;34.63;;;;;;;;;;5053624;28;20032;-53
2024/01/12 08:40:41;;;;;;;45.63;32.03;;;;;;;;;;5053441;28;20053;-55
2024/01/12 08:43:08;;;;;;;46.60;31.03;;;;;;;;;;5053441;28;20505;-54
2024/01/12 08:45:34;;;;;;;37.43;28.63;;;;;;;;;;5053503;28;20025;-53
2024/01/12 08:48:00;;;;;;;34.20;26.87;;;;;;;;;;5053704;28;20040;-55
2024/01/12 08:50:26;;;;;;;37.60;30.13;;;;;;;;;;5053278;28;20029;-54
2024/01/12 08:52:52;;;;;;;43.10;32.60;;;;;;;;;;5053250;28;20082;-52
2024/01/12 08:55:18;;;;;;;39.70;33.57;;;;;;;;;;5053068;28;20028;-49
2024/01/12 08:57:44;;;;;;;40.27;30.93;;;;;;;;;;5053568;28;20033;-54
2024/01/12 09:00:11;;;;;;;47.80;36.83;;;;;;;;;;5053108;28;20409;-51
2024/01/12 09:02:37;;;;;;;51.43;34.83;;;;;;;;;;5053301;28;20029;-54
2024/01/12 09:05:03;;;;;;;38.57;28.60;;;;;;;;;;5053275;28;20031;-54
2024/01/12 09:07:29;;;;;;;50.63;38.93;;;;;;;;;;5054085;28;20029;-49
2024/01/12 09:09:55;;;;;;;47.77;36.47;;;;;;;;;;5053392;28;20029;-54
2024/01/12 09:12:21;;;;;;;39.00;34.97;;;;;;;;;;5053260;28;20072;-52
2024/01/12 09:14:47;;;;;;;46.83;34.70;;;;;;;;;;5053213;28;20028;-55
2024/01/12 09:17:13;;;;;;;43.07;36.20;;;;;;;;;;5053965;28;20356;-53
2024/01/12 09:19:38;;;;;;;53.60;33.10;;;;;;;;;;5053266;28;20417;-55
2024/01/12 09:22:04;;;;;;;44.20;35.47;;;;;;;;;;5053703;28;20020;-51
2024/01/12 09:24:30;;;;;;;53.07;41.20;;;;;;;;;;5053025;28;20075;-53
2024/01/12 09:26:56;;;;;;;46.67;35.83;;;;;;;;;;5053275;28;20154;-55
2024/01/12 09:29:22;;;;;;;46.57;37.17;;;;;;;;;;5055584;28;20055;-53
2024/01/12 09:31:48;;;;;;;45.33;37.27;;;;;;;;;;5057766;28;20028;-53
2024/01/12 09:34:14;;;;;;;46.50;37.53;;;;;;;;;;5056824;28;20056;-53
2024/01/12 09:36:40;;;;;;;36.20;26.13;;;;;;;;;;5056800;28;20028;-56
2024/01/12 09:39:06;;;;;;;42.53;35.10;;;;;;;;;;5057166;28;20100;-53
2024/01/12 09:41:39;;;;;;;44.80;37.53;;;;;;;;;;5057160;28;20025;-56
2024/01/12 09:44:08;;;;;;;42.63;32.40;;;;;;;;;;5056874;28;20032;-53
2024/01/12 09:46:36;;;;;;;44.47;31.63;;;;;;;;;;5056244;28;20075;-56
2024/01/12 09:49:02;;;;;;;52.23;38.93;;;;;;;;;;5057114;28;20064;-50
2024/01/12 09:51:28;;;;;;;45.77;36.73;;;;;;;;;;5056600;28;20057;-52
2024/01/12 09:53:55;;;;;;;47.90;38.30;;;;;;;;;;5056691;28;20029;-50
2024/01/12 09:56:21;;;;;;;50.07;38.87;;;;;;;;;;5056641;28;20098;-54
2024/01/12 09:58:47;;;;;;;49.93;40.83;;;;;;;;;;5056876;28;20420;-55
2024/01/12 10:01:13;;;;;;;50.80;38.33;;;;;;;;;;5056766;28;20063;-55
2024/01/12 10:03:40;;;;;;;42.50;33.77;;;;;;;;;;5056653;28;20421;-53
2024/01/12 10:06:06;;;;;;;47.30;37.50;;;;;;;;;;5056120;28;20577;-52
2024/01/12 10:08:36;;;;;;;61.97;40.13;;;;;;;;;;5056035;28;20581;-56
2024/01/12 10:11:01;;;;;;;50.87;38.97;;;;;;;;;;5056102;28;20175;-56
2024/01/12 10:13:27;;;;;;;54.87;41.63;;;;;;;;;;5056293;28;20471;-51
2024/01/12 10:15:53;;;;;;;55.63;40.03;;;;;;;;;;5055934;28;20379;-56
2024/01/12 10:18:19;;;;;;;56.23;40.63;;;;;;;;;;5055533;28;20037;-55
2024/01/12 10:20:45;;;;;;;52.20;39.43;;;;;;;;;;5056721;28;20025;-54
2024/01/12 10:23:11;;;;;;;56.37;43.03;;;;;;;;;;5055555;28;20039;-53
2024/01/12 10:25:38;;;;;;;48.13;37.60;;;;;;;;;;5055902;28;20373;-56
2024/01/12 10:28:04;;;;;;;50.23;40.50;;;;;;;;;;5056373;28;20029;-53
2024/01/12 10:30:31;;;;;;;52.30;40.60;;;;;;;;;;5056057;28;20100;-56
2024/01/12 10:33:01;;;;;;;63.07;42.50;;;;;;;;;;5055667;28;20455;-55
2024/01/12 10:35:27;;;;;;;51.63;39.35;;;;;;;;;;5055594;28;20033;-54
2024/01/12 10:37:58;;;;;;;47.90;33.73;;;;;;;;;;5055580;28;20079;-55
2024/01/12 10:40:24;;;;;;;48.13;37.77;;;;;;;;;;5055072;28;20025;-55
2024/01/12 10:42:50;;;;;;;51.67;41.83;;;;;;;;;;5055454;28;20105;-56
2024/01/12 10:45:20;;;;;;;54.57;38.63;;;;;;;;;;5055482;28;20104;-52
2024/01/12 10:47:48;;;;;;;49.47;40.90;;;;;;;;;;5055612;28;20135;-54
2024/01/12 10:50:16;;;;;;;48.67;37.37;;;;;;;;;;5055332;28;20746;-56
2024/01/12 10:52:42;;;;;;;41.47;33.73;;;;;;;;;;5055565;28;20025;-54
2024/01/12 10:55:10;;;;;;;52.47;37.97;;;;;;;;;;5055292;28;20027;-53
2024/01/12 10:57:37;;;;;;;50.20;38.00;;;;;;;;;;5055743;28;20463;-56
2024/01/12 11:00:05;;;;;;;41.47;34.13;;;;;;;;;;5055438;28;20052;-54
2024/01/12 11:02:31;;;;;;;48.70;35.87;;;;;;;;;;5054986;28;20085;-55
2024/01/12 11:04:58;;;;;;;40.77;34.83;;;;;;;;;;5055691;28;20033;-54
2024/01/12 11:07:24;;;;;;;31.73;27.50;;;;;;;;;;5054948;28;20029;-53
2024/01/12 11:09:51;;;;;;;40.93;34.13;;;;;;;;;;5054803;28;20040;-53
2024/01/12 11:12:33;;;;;;;37.37;25.60;;;;;;;;;;5054951;28;20021;-56
2024/01/12 11:15:00;;;;;;;60.97;38.43;;;;;;;;;;5054849;28;20122;-53
2024/01/12 11:17:29;;;;;;;42.33;33.40;;;;;;;;;;5054759;28;20021;-52
2024/01/12 11:20:10;;;;;;;46.17;32.83;;;;;;;;;;5055331;28;20021;-54
2024/01/12 11:22:36;;;;;;;50.15;39.38;;;;;;;;;;5054727;28;20060;-55
2024/01/12 11:25:02;;;;;;;50.63;38.03;;;;;;;;;;5054408;28;20029;-54
2024/01/12 11:27:31;;;;;;;46.77;37.93;;;;;;;;;;5055505;28;20017;-53
2024/01/12 11:29:58;;;;;;;49.67;39.53;;;;;;;;;;5054310;28;20021;-56
2024/01/12 11:32:24;;;;;;;53.37;41.73;;;;;;;;;;5054964;28;20029;-55
2024/01/12 11:34:50;;;;;;;52.13;39.60;;;;;;;;;;5055209;28;20465;-54
2024/01/12 11:37:16;;;;;;;52.63;39.67;;;;;;;;;;5054430;28;20111;-51
2024/01/12 11:39:44;;;;;;;56.43;39.00;;;;;;;;;;5054756;28;20104;-52
2024/01/12 11:42:10;;;;;;;55.40;39.20;;;;;;;;;;5054333;28;20418;-54
2024/01/12 11:44:36;;;;;;;53.87;40.10;;;;;;;;;;5055031;28;20060;-51
2024/01/12 11:47:07;;;;;;;48.17;37.17;;;;;;;;;;5054145;28;20470;-54
2024/01/12 11:49:34;;;;;;;53.83;38.80;;;;;;;;;;5054813;28;20406;-56
2024/01/12 11:52:04;;;;;;;53.93;39.60;;;;;;;;;;5053976;28;20406;-54
2024/01/12 11:54:30;;;;;;;43.03;35.78;;;;;;;;;;5054321;28;20193;-53
2024/01/12 11:56:56;;;;;;;47.43;39.23;;;;;;;;;;5054440;28;20052;-51
2024/01/12 11:59:22;;;;;;;49.23;34.37;;;;;;;;;;5053988;28;20033;-55
2024/01/12 12:01:48;;;;;;;50.80;37.10;;;;;;;;;;5054029;28;20048;-53
2024/01/12 12:04:17;;;;;;;48.97;34.83;;;;;;;;;;5053981;28;20146;-57
2024/01/12 12:06:45;;;;;;;48.80;35.77;;;;;;;;;;5054065;28;20096;-56
2024/01/12 12:09:11;;;;;;;52.80;37.47;;;;;;;;;;5054523;28;20378;-57
2024/01/12 12:11:37;;;;;;;43.00;34.87;;;;;;;;;;5053574;28;20033;-52
2024/01/12 12:14:03;;;;;;;43.10;34.77;;;;;;;;;;5053594;28;20021;-52
2024/01/12 12:16:29;;;;;;;46.67;36.53;;;;;;;;;;5053805;28;20033;-55
2024/01/12 12:18:55;;;;;;;47.43;36.67;;;;;;;;;;5053643;28;20379;-56
2024/01/12 12:21:21;;;;;;;51.70;36.03;;;;;;;;;;5054185;28;20051;-55
2024/01/12 12:23:47;;;;;;;44.63;34.97;;;;;;;;;;5053732;28;20025;-56
2024/01/12 12:26:13;;;;;;;47.53;34.20;;;;;;;;;;5053696;28;20163;-56
2024/01/12 12:28:43;;;;;;;54.23;37.97;;;;;;;;;;5054397;28;20032;-54
2024/01/12 12:31:10;;;;;;;47.67;36.37;;;;;;;;;;5052723;28;20032;-54
2024/01/12 12:33:36;;;;;;;50.10;38.07;;;;;;;;;;5054181;28;20112;-55
2024/01/12 12:36:06;;;;;;;39.57;29.77;;;;;;;;;;5054177;28;20072;-57
2024/01/12 12:38:32;;;;;;;48.90;32.97;;;;;;;;;;5054168;28;20037;-57
2024/01/12 12:40:58;;;;;;;41.43;31.77;;;;;;;;;;5053963;28;20028;-53
2024/01/12 12:43:25;;;;;;;42.43;34.40;;;;;;;;;;5053609;28;20029;-55
2024/01/12 12:45:57;;;;;;;41.67;30.60;;;;;;;;;;5053176;28;20029;-56
2024/01/12 12:48:25;;;;;;;46.83;34.10;;;;;;;;;;5053475;28;20033;-54
2024/01/12 12:50:51;;;;;;;43.40;32.90;;;;;;;;;;5054259;28;20033;-56
2024/01/12 12:53:17;;;;;;;39.90;31.37;;;;;;;;;;5054283;28;20443;-55
2024/01/12 12:55:43;;;;;;;50.20;34.90;;;;;;;;;;5053535;28;20048;-55
2024/01/12 12:58:09;;;;;;;41.70;33.27;;;;;;;;;;5053348;28;20065;-55
2024/01/12 13:00:35;;;;;;;44.13;34.27;;;;;;;;;;5053700;28;20067;-52
2024/01/12 13:03:01;;;;;;;41.23;31.63;;;;;;;;;;5053703;28;20036;-52
2024/01/12 13:05:27;;;;;;;45.27;34.63;;;;;;;;;;5057037;28;20033;-53
2024/01/12 13:07:53;;;;;;;34.07;25.60;;;;;;;;;;5057496;28;20029;-55
2024/01/12 13:10:19;;;;;;;47.33;34.87;;;;;;;;;;5057323;28;20455;-56
2024/01/12 13:12:45;;;;;;;38.03;30.63;;;;;;;;;;5057870;28;20025;-57
2024/01/12 13:15:11;;;;;;;40.67;31.57;;;;;;;;;;5057503;28;20051;-53
2024/01/12 13:17:37;;;;;;;44.03;32.83;;;;;;;;;;5057012;28;20053;-55
2024/01/12 13:20:03;;;;;;;42.37;33.17;;;;;;;;;;5057085;28;20108;-56
2024/01/12 13:22:29;;;;;;;48.00;32.30;;;;;;;;;;5057908;28;20064;-56
2024/01/12 13:24:59;;;;;;;38.00;29.97;;;;;;;;;;5056973;28;20032;-57
2024/01/12 13:27:25;;;;;;;38.83;31.07;;;;;;;;;;5057091;28;20400;-54
2024/01/12 13:29:51;;;;;;;36.43;29.73;;;;;;;;;;5055741;28;20031;-56
2024/01/12 13:32:17;;;;;;;40.53;31.17;;;;;;;;;;5056824;28;20025;-54
2024/01/12 13:34:43;;;;;;;49.37;33.27;;;;;;;;;;5056696;28;20048;-54
2024/01/12 13:37:09;;;;;;;47.07;33.80;;;;;;;;;;5057115;28;20052;-55
2024/01/12 13:39:35;;;;;;;45.97;34.20;;;;;;;;;;5057046;28;20083;-57
2024/01/12 13:42:01;;;;;;;43.80;34.43;;;;;;;;;;5056648;28;20021;-57
2024/01/12 13:44:30;;;;;;;45.47;30.90;;;;;;;;;;5056814;28;20027;-57
2024/01/12 13:46:56;;;;;;;33.13;26.07;;;;;;;;;;5056317;28;20039;-56
2024/01/12 13:49:23;;;;;;;40.77;31.90;;;;;;;;;;5056783;28;20029;-56
2024/01/12 13:51:49;;;;;;;43.83;34.80;;;;;;;;;;5056890;28;20025;-57
2024/01/12 13:54:16;;;;;;;45.30;31.63;;;;;;;;;;5056993;28;20112;-52
2024/01/12 13:56:42;;;;;;;44.53;33.90;;;;;;;;;;5056454;28;20364;-56
2024/01/12 13:59:08;;;;;;;51.67;37.20;;;;;;;;;;5056362;28;20040;-55
2024/01/12 14:01:34;;;;;;;47.90;30.67;;;;;;;;;;5056788;28;20026;-52
2024/01/12 14:04:01;;;;;;;43.80;33.90;;;;;;;;;;5056198;28;20068;-56
2024/01/12 14:06:28;;;;;;;46.07;31.63;;;;;;;;;;5055991;28;20192;-57
2024/01/12 14:08:54;;;;;;;43.87;34.70;;;;;;;;;;5056476;28;20037;-56
2024/01/12 14:11:20;;;;;;;43.80;34.77;;;;;;;;;;5056448;28;20036;-56